createdAt,value
2019-02-18T00:02:12.928Z,0.10
2019-02-18T00:04:48.585Z,0.10
2019-02-18T00:07:18.003Z,0.10
2019-02-18T00:09:47.491Z,0.10
2019-02-18T00:12:16.950Z,0.10
2019-02-18T00:14:46.341Z,0.10
2019-02-18T00:17:15.757Z,0.10
2019-02-18T00:19:45.234Z,0.10
2019-02-18T00:22:14.658Z,0.10
2019-02-18T00:24:44.076Z,0.10
2019-02-18T00:27:18.000Z,0.13
2019-02-18T00:29:47.437Z,0.20
2019-02-18T00:32:16.837Z,0.10
2019-02-18T00:34:46.244Z,0.10
2019-02-18T00:37:24.158Z,0.10
2019-02-18T00:40:07.803Z,0.10
2019-02-18T00:42:37.199Z,0.10
2019-02-18T00:45:09.979Z,0.10
2019-02-18T00:47:39.392Z,0.10
2019-02-18T00:50:09.782Z,0.10
2019-02-18T00:52:39.183Z,0.10
2019-02-18T00:55:09.211Z,0.10
2019-02-18T00:57:38.633Z,0.10
2019-02-18T01:00:11.731Z,0.10
2019-02-18T01:02:41.158Z,0.10
2019-02-18T01:05:10.649Z,0.10
2019-02-18T01:07:40.140Z,0.10
2019-02-18T01:10:11.292Z,0.20
2019-02-18T01:12:40.695Z,0.10
2019-02-18T01:15:12.447Z,0.10
2019-02-18T01:17:46.457Z,0.10
2019-02-18T01:20:15.862Z,0.10
2019-02-18T01:22:45.354Z,0.20
2019-02-18T01:25:14.751Z,0.10
2019-02-18T01:27:44.198Z,0.10
2019-02-18T01:30:19.663Z,0.10
2019-02-18T01:32:55.036Z,0.10
2019-02-18T01:35:24.472Z,0.10
2019-02-18T01:37:55.680Z,0.10
2019-02-18T01:40:25.174Z,0.10
2019-02-18T01:42:54.587Z,0.10
2019-02-18T01:45:23.999Z,0.10
2019-02-18T01:47:56.073Z,0.10
2019-02-18T01:50:25.568Z,0.10
2019-02-18T01:52:54.998Z,0.10
2019-02-18T01:55:24.392Z,0.10
2019-02-18T01:57:53.884Z,0.10
2019-02-18T02:00:27.854Z,0.10
2019-02-18T02:02:57.271Z,0.10
2019-02-18T02:05:26.665Z,0.10
2019-02-18T02:07:56.794Z,0.10
2019-02-18T02:10:26.384Z,0.10
2019-02-18T02:12:59.000Z,0.10
2019-02-18T02:15:28.503Z,0.10
2019-02-18T02:17:57.927Z,0.27
2019-02-18T02:20:27.371Z,0.40
2019-02-18T02:22:56.790Z,0.10
2019-02-18T02:25:26.284Z,0.10
2019-02-18T02:27:55.712Z,0.10
2019-02-18T02:30:25.095Z,0.10
2019-02-18T02:32:54.498Z,0.10
2019-02-18T02:35:23.898Z,0.77
2019-02-18T02:37:53.311Z,0.10
2019-02-18T02:40:24.003Z,0.10
2019-02-18T02:42:53.415Z,0.10
2019-02-18T02:45:25.218Z,0.33
2019-02-18T02:47:54.642Z,0.10
2019-02-18T02:50:31.946Z,0.10
2019-02-18T02:53:01.370Z,0.10
2019-02-18T02:55:30.761Z,0.10
2019-02-18T02:58:00.169Z,0.10
2019-02-18T03:00:29.615Z,0.30
2019-02-18T03:03:03.226Z,0.10
2019-02-18T03:05:35.205Z,0.20
2019-02-18T03:08:04.581Z,0.10
2019-02-18T03:10:36.755Z,0.20
2019-02-18T03:13:06.153Z,0.30
2019-02-18T03:15:35.569Z,0.10
2019-02-18T03:18:04.966Z,0.47
2019-02-18T03:20:34.382Z,0.10
2019-02-18T03:23:08.344Z,0.10
2019-02-18T03:25:37.828Z,0.10
2019-02-18T03:28:10.402Z,0.10
2019-02-18T03:30:43.060Z,0.10
2019-02-18T03:33:15.658Z,0.10
2019-02-18T03:35:45.151Z,0.10
2019-02-18T03:38:14.554Z,0.10
2019-02-18T03:40:45.341Z,2.87
2019-02-18T03:43:14.774Z,0.10
2019-02-18T03:45:44.195Z,0.10
2019-02-18T03:48:18.203Z,0.10
2019-02-18T03:50:47.715Z,0.10
2019-02-18T03:53:17.214Z,0.10
2019-02-18T03:55:59.522Z,0.10
2019-02-18T03:58:36.683Z,0.30
2019-02-18T04:01:06.212Z,0.10
2019-02-18T04:03:53.846Z,0.17
2019-02-18T04:06:27.779Z,0.10
2019-02-18T04:08:57.313Z,0.10
2019-02-18T04:11:26.722Z,0.13
2019-02-18T04:14:14.433Z,0.10
2019-02-18T04:16:43.847Z,0.13
2019-02-18T04:19:13.247Z,0.10
2019-02-18T04:21:45.381Z,0.10
2019-02-18T04:24:20.921Z,0.10
2019-02-18T04:26:50.324Z,0.10
2019-02-18T04:29:22.390Z,0.10
2019-02-18T04:31:53.539Z,0.10
2019-02-18T04:34:25.603Z,0.10
2019-02-18T04:37:04.055Z,1.10
2019-02-18T04:39:36.026Z,0.40
2019-02-18T04:42:05.711Z,0.10
2019-02-18T04:44:45.961Z,0.30
2019-02-18T04:47:15.359Z,0.10
2019-02-18T04:49:44.765Z,0.10
2019-02-18T04:52:14.190Z,0.20
2019-02-18T04:54:49.695Z,0.10
2019-02-18T04:57:19.082Z,0.10
2019-02-18T04:59:48.517Z,0.10
2019-02-18T05:02:17.926Z,0.20
2019-02-18T05:04:47.356Z,0.10
2019-02-18T05:07:16.785Z,0.10
2019-02-18T05:09:46.203Z,0.10
2019-02-18T05:12:18.367Z,0.10
2019-02-18T05:14:50.804Z,2.00
2019-02-18T05:17:20.217Z,0.10
2019-02-18T05:20:00.321Z,0.10
2019-02-18T05:22:37.335Z,0.10
2019-02-18T05:25:08.286Z,0.10
2019-02-18T05:27:37.733Z,0.10
2019-02-18T05:30:13.190Z,0.20
2019-02-18T05:32:45.288Z,0.10
2019-02-18T05:35:14.689Z,0.10
2019-02-18T05:37:44.161Z,0.10
2019-02-18T05:40:19.719Z,0.10
2019-02-18T05:42:57.971Z,0.40
2019-02-18T05:45:29.517Z,0.23
2019-02-18T05:47:58.927Z,0.10
2019-02-18T05:50:28.382Z,0.20
2019-02-18T05:52:57.893Z,0.10
2019-02-18T05:55:27.326Z,0.10
2019-02-18T05:57:56.797Z,1.60
2019-02-18T06:00:26.237Z,0.10
2019-02-18T06:02:55.649Z,0.10
2019-02-18T06:05:25.021Z,0.20
2019-02-18T06:07:54.456Z,0.10
2019-02-18T06:10:23.863Z,0.10
2019-02-18T06:13:02.448Z,0.10
2019-02-18T06:15:36.445Z,0.57
2019-02-18T06:18:05.865Z,0.10
2019-02-18T06:20:35.245Z,0.67
2019-02-18T06:23:04.649Z,0.10
2019-02-18T06:25:34.064Z,0.10
2019-02-18T06:28:06.951Z,0.10
2019-02-18T06:30:36.362Z,0.10
2019-02-18T06:33:05.878Z,0.10
2019-02-18T06:35:35.317Z,0.10
2019-02-18T06:38:04.983Z,0.10
2019-02-18T06:40:34.486Z,0.10
2019-02-18T06:43:04.252Z,0.10
2019-02-18T06:48:48.311Z,0.10
2019-02-18T06:51:17.747Z,0.10
2019-02-18T06:53:47.634Z,0.10
2019-02-18T06:56:18.626Z,0.20
2019-02-18T06:59:09.620Z,0.10
2019-02-18T07:01:40.623Z,0.10
2019-02-18T07:04:13.207Z,0.10
2019-02-18T07:06:47.835Z,0.10
2019-02-18T07:09:18.828Z,0.10
2019-02-18T07:11:49.811Z,0.10
2019-02-18T07:14:37.951Z,0.10
2019-02-18T07:17:07.355Z,0.20
2019-02-18T07:19:45.842Z,0.10
2019-02-18T07:22:15.352Z,0.30
2019-02-18T07:24:44.853Z,0.10
2019-02-18T07:27:14.293Z,0.10
2019-02-18T07:29:51.374Z,0.10
2019-02-18T07:32:20.819Z,0.10
2019-02-18T07:35:09.579Z,0.10
2019-02-18T07:37:38.995Z,0.10
2019-02-18T07:40:09.557Z,0.10
2019-02-18T07:42:45.017Z,0.10
2019-02-18T07:45:15.680Z,0.10
2019-02-18T07:47:45.128Z,0.10
2019-02-18T07:50:20.792Z,0.10
2019-02-18T07:52:45.783Z,0.20
2019-02-18T07:55:15.303Z,0.40
2019-02-18T07:57:44.735Z,0.10
2019-02-18T08:00:32.693Z,0.10
2019-02-18T08:03:04.871Z,0.10
2019-02-18T08:05:34.310Z,0.10
2019-02-18T08:08:08.297Z,0.10
2019-02-18T08:10:37.703Z,0.10
2019-02-18T08:13:07.121Z,0.10
2019-02-18T08:15:36.719Z,0.23
2019-02-18T08:18:16.320Z,0.10
2019-02-18T08:20:45.880Z,0.10
2019-02-18T08:23:16.164Z,0.33
2019-02-18T08:25:45.568Z,0.10
2019-02-18T08:28:14.961Z,0.27
2019-02-18T08:30:44.381Z,0.00
2019-02-18T08:33:13.768Z,0.10
2019-02-18T08:35:46.033Z,0.30
2019-02-18T08:38:15.436Z,0.00
2019-02-18T08:41:03.274Z,0.10
2019-02-18T08:43:51.375Z,0.00
2019-02-18T08:46:22.259Z,0.10
2019-02-18T08:48:53.401Z,0.37
2019-02-18T08:51:27.318Z,0.50
2019-02-18T08:53:57.323Z,0.10
2019-02-18T08:56:26.832Z,0.30
2019-02-18T08:58:56.330Z,0.20
2019-02-18T09:01:25.740Z,0.10
2019-02-18T09:03:55.267Z,0.10
2019-02-18T09:06:25.686Z,0.13
2019-02-18T09:08:55.080Z,0.30
2019-02-18T09:11:24.612Z,0.37
2019-02-18T09:14:12.431Z,0.10
2019-02-18T09:16:44.946Z,0.00
2019-02-18T09:19:14.452Z,0.10
2019-02-18T09:21:49.995Z,0.13
2019-02-18T09:24:20.984Z,0.10
2019-02-18T09:26:50.510Z,0.00
2019-02-18T09:29:22.362Z,0.30
2019-02-18T09:31:51.914Z,0.00
2019-02-18T09:34:21.377Z,0.50
2019-02-18T09:36:50.780Z,0.00
2019-02-18T09:39:30.576Z,0.13
2019-02-18T09:41:53.432Z,0.10
2019-02-18T09:44:32.010Z,0.00
2019-02-18T09:47:01.536Z,0.10
2019-02-18T09:49:30.986Z,0.10
2019-02-18T09:52:00.599Z,4.63
2019-02-18T09:54:30.006Z,0.10
2019-02-18T09:56:59.431Z,0.10
2019-02-18T09:59:28.852Z,0.00
2019-02-18T10:01:58.240Z,0.10
2019-02-18T10:04:27.858Z,0.10
2019-02-18T10:06:57.340Z,0.00
2019-02-18T10:09:26.834Z,0.07
2019-02-18T10:11:56.228Z,0.10
2019-02-18T10:14:25.684Z,0.10
2019-02-18T10:16:55.204Z,0.10
2019-02-18T10:19:26.400Z,7.40
2019-02-18T10:21:55.824Z,0.10
2019-02-18T10:24:25.321Z,0.10
2019-02-18T10:26:57.710Z,0.10
2019-02-18T10:29:27.130Z,0.10
2019-02-18T10:31:58.130Z,0.10
2019-02-18T10:34:28.177Z,0.57
2019-02-18T10:36:57.779Z,0.00
2019-02-18T10:39:27.202Z,0.00
2019-02-18T10:41:56.872Z,0.50
2019-02-18T10:44:26.512Z,0.10
2019-02-18T10:46:56.012Z,0.07
2019-02-18T10:49:26.912Z,1.70
2019-02-18T10:51:56.367Z,0.10
2019-02-18T10:54:25.846Z,0.10
2019-02-18T10:56:55.327Z,1.23
2019-02-18T10:59:24.963Z,0.07
2019-02-18T11:01:54.604Z,0.10
2019-02-18T11:04:23.713Z,0.30
2019-02-18T11:06:55.879Z,0.10
2019-02-18T11:09:25.326Z,0.00
2019-02-18T11:11:54.727Z,0.30
2019-02-18T11:14:24.181Z,0.10
2019-02-18T11:16:57.809Z,0.20
2019-02-18T11:19:30.229Z,0.10
2019-02-18T11:22:02.479Z,0.10
2019-02-18T11:24:34.646Z,0.00
2019-02-18T11:27:04.233Z,0.00
2019-02-18T11:29:35.293Z,0.10
2019-02-18T11:32:04.699Z,0.10
2019-02-18T11:34:34.118Z,0.00
2019-02-18T11:37:13.720Z,0.20
2019-02-18T11:39:47.634Z,0.00
2019-02-18T11:42:17.176Z,0.10
2019-02-18T11:44:46.563Z,0.20
2019-02-18T11:47:16.018Z,0.00
2019-02-18T11:49:46.758Z,0.10
2019-02-18T11:52:18.407Z,0.10
2019-02-18T11:54:47.863Z,0.00
2019-02-18T11:57:18.399Z,0.10
2019-02-18T11:59:47.901Z,0.00
2019-02-18T12:02:17.814Z,0.10
2019-02-18T12:04:47.218Z,0.23
2019-02-18T12:07:16.626Z,0.10
2019-02-18T12:09:46.117Z,0.20
2019-02-18T12:12:16.144Z,0.10
2019-02-18T12:14:45.726Z,1.57
2019-02-18T12:17:20.638Z,0.10
2019-02-18T12:19:46.567Z,0.10
2019-02-18T12:22:16.118Z,0.10
2019-02-18T12:24:45.557Z,0.00
2019-02-18T12:27:15.062Z,0.03
2019-02-18T12:29:44.740Z,0.77
2019-02-18T12:32:14.149Z,0.10
2019-02-18T12:34:48.128Z,0.10
2019-02-18T12:37:27.353Z,0.60
2019-02-18T12:40:13.584Z,0.10
2019-02-18T12:42:45.472Z,0.10
2019-02-18T12:45:14.888Z,0.00
2019-02-18T12:47:44.391Z,18.60
2019-02-18T12:50:20.548Z,16.97
2019-02-18T12:52:50.140Z,18.10
2019-02-18T12:55:22.996Z,17.37
2019-02-18T12:57:55.012Z,16.40
2019-02-18T13:00:24.871Z,18.00
2019-02-18T13:02:54.305Z,18.73
2019-02-18T13:05:23.938Z,15.50
2019-02-18T13:07:58.558Z,15.70
2019-02-18T13:10:34.698Z,16.23
2019-02-18T13:13:01.765Z,17.33
2019-02-18T13:15:38.497Z,18.37
2019-02-18T13:18:07.914Z,15.13
2019-02-18T13:20:37.397Z,15.43
2019-02-18T13:23:07.339Z,15.03
2019-02-18T13:25:36.817Z,14.77
2019-02-18T13:28:08.674Z,15.83
2019-02-18T13:30:38.391Z,16.00
2019-02-18T13:33:09.232Z,14.67
2019-02-18T13:35:40.269Z,16.63
2019-02-18T13:38:09.985Z,16.37
2019-02-18T13:40:39.425Z,16.27
2019-02-18T13:43:08.916Z,13.97
2019-02-18T13:45:38.530Z,14.97
2019-02-18T13:48:08.143Z,20.67
2019-02-18T13:50:56.744Z,16.73
2019-02-18T13:53:44.516Z,14.27
2019-02-18T13:56:14.053Z,16.37
2019-02-18T13:58:46.300Z,19.53
2019-02-18T14:01:15.710Z,20.97
2019-02-18T14:03:45.194Z,16.57
2019-02-18T14:06:14.617Z,16.13
2019-02-18T14:08:44.046Z,15.07
2019-02-18T14:11:16.174Z,15.23
2019-02-18T14:13:45.898Z,15.97
2019-02-18T14:16:15.391Z,17.53
2019-02-18T14:18:44.910Z,19.60
2019-02-18T14:21:14.408Z,17.50
2019-02-18T14:23:46.739Z,16.37
2019-02-18T14:26:16.173Z,14.20
2019-02-18T14:28:47.203Z,14.40
2019-02-18T14:31:16.644Z,15.83
2019-02-18T14:33:46.240Z,14.87
2019-02-18T14:36:16.929Z,13.67
2019-02-18T14:38:46.395Z,12.93
2019-02-18T14:41:16.208Z,14.73
2019-02-18T14:43:45.763Z,14.77
2019-02-18T14:46:15.172Z,13.13
2019-02-18T14:48:44.609Z,13.10
2019-02-18T14:51:20.268Z,17.00
2019-02-18T14:53:49.695Z,16.20
2019-02-18T14:56:20.504Z,15.67
2019-02-18T14:59:01.948Z,13.07
2019-02-18T15:01:31.394Z,16.10
2019-02-18T15:04:00.808Z,15.47
2019-02-18T15:06:30.256Z,13.87
2019-02-18T15:09:06.006Z,14.47
2019-02-18T15:11:44.743Z,16.23
2019-02-18T15:14:14.224Z,12.93
2019-02-18T15:16:46.554Z,12.13
2019-02-18T15:19:16.069Z,12.40
2019-02-18T15:21:45.831Z,13.17
2019-02-18T15:24:15.198Z,14.47
2019-02-18T15:26:44.623Z,11.17
2019-02-18T15:29:14.042Z,14.80
2019-02-18T15:31:52.813Z,10.83
2019-02-18T15:34:29.908Z,12.43
2019-02-18T15:36:59.346Z,13.80
2019-02-18T15:39:36.486Z,11.07
2019-02-18T15:42:05.923Z,12.73
2019-02-18T15:44:35.342Z,10.30
2019-02-18T15:47:04.810Z,9.73
2019-02-18T15:49:34.243Z,10.97
2019-02-18T15:52:09.908Z,12.23
2019-02-18T15:54:39.354Z,9.33
2019-02-18T15:57:08.795Z,9.67
2019-02-18T15:59:41.043Z,7.70
2019-02-18T16:02:10.542Z,10.90
2019-02-18T16:04:40.110Z,12.03
2019-02-18T16:07:16.827Z,10.30
2019-02-18T16:09:46.266Z,8.20
2019-02-18T16:12:17.273Z,9.30
2019-02-18T16:14:52.391Z,11.33
2019-02-18T16:17:26.417Z,8.70
2019-02-18T16:19:55.897Z,6.67
2019-02-18T16:22:28.039Z,10.90
2019-02-18T16:24:56.655Z,9.50
2019-02-18T16:27:26.064Z,8.77
2019-02-18T16:29:55.531Z,8.07
2019-02-18T16:32:42.999Z,9.77
2019-02-18T16:35:30.878Z,11.13
2019-02-18T16:38:00.294Z,10.23
2019-02-18T16:40:29.887Z,11.80
2019-02-18T16:43:08.233Z,10.73
2019-02-18T16:45:38.682Z,9.70
2019-02-18T16:48:08.486Z,11.33
2019-02-18T16:50:37.899Z,11.60
2019-02-18T16:53:08.598Z,11.73
2019-02-18T16:55:38.389Z,12.17
2019-02-18T16:58:07.905Z,9.20
2019-02-18T17:00:37.346Z,11.93
2019-02-18T17:03:06.811Z,12.43
2019-02-18T17:05:36.542Z,12.20
2019-02-18T17:08:05.931Z,11.50
2019-02-18T17:10:35.375Z,13.33
2019-02-18T17:13:16.712Z,11.20
2019-02-18T17:15:46.122Z,16.20
2019-02-18T17:18:15.530Z,10.50
2019-02-18T17:20:44.931Z,11.30
2019-02-18T17:23:14.541Z,13.87
2019-02-18T17:25:43.955Z,14.43
2019-02-18T17:28:16.003Z,13.37
2019-02-18T17:30:45.530Z,12.70
2019-02-18T17:33:14.908Z,14.53
2019-02-18T17:35:53.018Z,13.73
2019-02-18T17:38:30.406Z,15.00
2019-02-18T17:41:01.494Z,14.43
2019-02-18T17:43:33.724Z,12.33
2019-02-18T17:46:10.742Z,14.57
2019-02-18T17:48:40.210Z,16.60
2019-02-18T17:51:26.817Z,16.17
2019-02-18T17:53:56.585Z,14.07
2019-02-18T17:56:31.871Z,13.70
2019-02-18T17:59:12.111Z,14.13
2019-02-18T18:01:41.514Z,12.97
2019-02-18T18:04:11.101Z,15.00
2019-02-18T18:06:42.089Z,14.47
2019-02-18T18:09:14.965Z,15.37
2019-02-18T18:11:44.383Z,14.63
2019-02-18T18:14:13.882Z,15.83
2019-02-18T18:16:46.032Z,14.37
2019-02-18T18:19:19.972Z,13.90
2019-02-18T18:21:49.710Z,15.20
2019-02-18T18:24:21.995Z,13.03
2019-02-18T18:26:51.419Z,16.40
2019-02-18T18:29:20.846Z,15.80
2019-02-18T18:31:53.164Z,14.37
2019-02-18T18:34:27.110Z,12.83
2019-02-18T18:36:56.547Z,15.90
2019-02-18T18:39:26.018Z,13.40
2019-02-18T18:41:55.423Z,16.63
2019-02-18T18:44:24.855Z,12.97
2019-02-18T18:46:54.270Z,14.50
2019-02-18T18:49:28.707Z,14.67
2019-02-18T18:51:58.148Z,14.17
2019-02-18T18:54:29.198Z,14.67
2019-02-18T18:56:58.657Z,14.93
2019-02-18T18:59:28.100Z,15.63
2019-02-18T19:01:57.791Z,16.37
2019-02-18T19:04:30.043Z,13.93
2019-02-18T19:07:05.339Z,17.90
2019-02-18T19:09:34.763Z,14.83
2019-02-18T19:12:04.192Z,14.50
2019-02-18T19:14:40.093Z,16.70
2019-02-18T19:17:20.316Z,16.60
2019-02-18T19:19:57.540Z,18.10
2019-02-18T19:22:20.967Z,17.53
2019-02-18T19:24:50.755Z,16.77
2019-02-18T19:27:20.275Z,21.60
2019-02-18T19:29:49.750Z,21.37
2019-02-18T19:32:19.188Z,18.00
2019-02-18T19:34:48.608Z,15.77
2019-02-18T19:37:18.087Z,18.10
2019-02-18T19:39:47.547Z,18.17
2019-02-18T19:42:17.015Z,20.73
2019-02-18T19:44:46.447Z,18.93
2019-02-18T19:47:15.881Z,17.87
2019-02-18T19:49:45.304Z,17.93
2019-02-18T19:52:15.136Z,18.50
2019-02-18T19:55:05.535Z,20.73
2019-02-18T19:57:34.964Z,21.43
2019-02-18T20:00:06.525Z,21.73
2019-02-18T20:02:36.243Z,18.40
2019-02-18T20:05:07.750Z,18.50
2019-02-18T20:07:51.900Z,19.37
2019-02-18T20:10:23.656Z,21.23
2019-02-18T20:12:59.753Z,17.33
2019-02-18T20:15:35.210Z,21.50
2019-02-18T20:18:04.609Z,19.80
2019-02-18T20:20:41.648Z,20.33
2019-02-18T20:23:11.361Z,17.83
2019-02-18T20:25:46.635Z,20.10
2019-02-18T20:28:16.052Z,21.77
2019-02-18T20:30:45.510Z,18.47
2019-02-18T20:33:17.805Z,20.63
2019-02-18T20:35:47.547Z,20.03
2019-02-18T20:38:19.892Z,18.30
2019-02-18T20:40:49.318Z,17.00
2019-02-18T20:43:18.731Z,21.03
2019-02-18T20:45:48.131Z,21.17
2019-02-18T20:48:17.583Z,19.63
2019-02-18T20:50:48.562Z,21.90
2019-02-18T20:53:17.987Z,21.60
2019-02-18T20:55:48.885Z,20.77
2019-02-18T20:58:18.323Z,19.20
2019-02-18T21:00:47.742Z,19.93
2019-02-18T21:03:17.550Z,19.33
2019-02-18T21:05:47.009Z,19.80
2019-02-18T21:08:16.418Z,20.60
2019-02-18T21:10:51.985Z,21.53
2019-02-18T21:13:21.415Z,20.73
2019-02-18T21:15:53.541Z,17.63
2019-02-18T21:18:22.990Z,19.17
2019-02-18T21:20:55.208Z,23.97
2019-02-18T21:23:30.607Z,20.00
2019-02-18T21:26:00.174Z,19.13
2019-02-18T21:28:29.667Z,21.37
2019-02-18T21:31:00.935Z,22.63
2019-02-18T21:33:30.518Z,20.50
2019-02-18T21:36:05.963Z,19.30
2019-02-18T21:38:35.375Z,21.00
2019-02-18T21:41:04.875Z,19.80
2019-02-18T21:43:34.293Z,21.53
2019-02-18T21:46:08.334Z,23.30
2019-02-18T21:48:39.383Z,21.27
2019-02-18T21:51:10.478Z,23.17
2019-02-18T21:53:39.886Z,19.67
2019-02-18T21:56:09.845Z,19.97
2019-02-18T21:58:39.302Z,20.13
2019-02-18T22:01:08.704Z,19.30
2019-02-18T22:03:38.110Z,25.07
2019-02-18T22:06:07.517Z,19.67
2019-02-18T22:08:36.927Z,21.17
2019-02-18T22:11:06.449Z,21.63
2019-02-18T22:13:35.883Z,20.43
2019-02-18T22:16:06.885Z,22.93
2019-02-18T22:18:36.380Z,21.50
2019-02-18T22:21:05.788Z,21.30
2019-02-18T22:23:35.186Z,19.83
2019-02-18T22:26:04.804Z,21.73
2019-02-18T22:28:34.423Z,19.13
2019-02-18T22:31:08.415Z,19.97
2019-02-18T22:33:43.961Z,20.03
2019-02-18T22:36:16.110Z,20.97
2019-02-18T22:38:45.944Z,20.47
2019-02-18T22:41:15.454Z,23.33
2019-02-18T22:43:44.857Z,19.50
2019-02-18T22:46:14.363Z,18.30
2019-02-18T22:48:44.253Z,19.67
2019-02-18T22:51:16.750Z,20.73
2019-02-18T22:53:46.437Z,18.33
2019-02-18T22:56:17.449Z,18.83
2019-02-18T22:58:46.882Z,23.87
2019-02-18T23:01:17.091Z,20.47
2019-02-18T23:03:48.560Z,18.20
2019-02-18T23:06:17.998Z,17.83
2019-02-18T23:08:47.507Z,18.00
2019-02-18T23:11:16.923Z,21.73
2019-02-18T23:13:46.313Z,21.57
2019-02-18T23:16:15.745Z,17.23
2019-02-18T23:18:45.181Z,18.70
2019-02-18T23:21:14.592Z,22.30
2019-02-18T23:23:44.342Z,21.07
2019-02-18T23:26:16.364Z,18.07
2019-02-18T23:28:45.803Z,17.83
2019-02-18T23:31:15.231Z,16.50
2019-02-18T23:33:44.679Z,18.73
2019-02-18T23:36:14.119Z,18.83
2019-02-18T23:38:46.492Z,24.13
2019-02-18T23:41:15.917Z,19.07
2019-02-18T23:43:45.358Z,18.53
2019-02-18T23:46:14.807Z,17.87
2019-02-18T23:48:44.270Z,20.73
2019-02-18T23:51:16.390Z,15.77
2019-02-18T23:53:45.805Z,18.50
2019-02-18T23:56:15.296Z,22.30
2019-02-18T23:58:47.888Z,14.97
